Time;durP1;ratioP1;P1;durP2;ratioP2;P2;SDS_P1;SDS_P2;PMS_P1;PMS_P2;Temp;Humidity;BMP_temperature;BMP_pressure;BME280_temperature;BME280_humidity;BME280_pressure;Samples;Min_cycle;Max_cycle;Signal;HPM_P1;HPM_P2
2024/04/09 00:01:48;;;;;;;8.50;5.10;;;;;;;10.75;67.09;97048.33;105074;1257;100018;-82
2024/04/09 00:04:15;;;;;;;8.90;5.30;;;;;;;10.68;67.22;97045.31;105044;1261;100474;-82
2024/04/09 00:06:43;;;;;;;5.20;4.40;;;;;;;10.64;67.30;97041.89;104969;1257;100555;-82
2024/04/09 00:09:13;;;;;;;9.10;4.80;;;;;;;10.61;67.45;97044.05;105025;1256;99230;-82
2024/04/09 00:11:43;;;;;;;6.20;5.00;;;;;;;10.54;67.46;97050.95;105000;1257;99766;-82
2024/04/09 00:14:10;;;;;;;11.20;5.00;;;;;;;10.45;67.56;97051.85;105019;1257;105041;-81
2024/04/09 00:16:39;;;;;;;8.10;4.80;;;;;;;10.40;67.62;97050.10;105038;1256;99286;-82
2024/04/09 00:19:07;;;;;;;7.90;4.20;;;;;;;10.30;67.58;97048.64;105029;1257;99614;-82
2024/04/09 00:21:34;;;;;;;5.80;4.00;;;;;;;10.23;67.65;97047.86;104990;1257;99340;-82
2024/04/09 00:24:02;;;;;;;6.60;4.00;;;;;;;10.19;67.76;97044.09;105058;1257;99362;-82
2024/04/09 00:26:31;;;;;;;5.80;3.80;;;;;;;10.15;67.86;97039.04;105026;1257;99262;-82
2024/04/09 00:28:59;;;;;;;7.40;4.20;;;;;;;10.09;67.91;97037.05;105023;1256;100730;-81
2024/04/09 00:31:26;;;;;;;7.00;4.60;;;;;;;10.03;68.10;97036.48;105045;1266;99254;-81
2024/04/09 00:33:55;;;;;;;8.40;4.40;;;;;;;9.99;68.25;97036.11;104919;1254;99326;-81
2024/04/09 00:36:22;;;;;;;10.00;4.40;;;;;;;9.95;68.35;97032.19;105002;1257;99800;-79
2024/04/09 00:38:50;;;;;;;8.90;4.40;;;;;;;9.96;68.59;97027.08;105021;1267;99298;-79
2024/04/09 00:41:17;;;;;;;7.70;4.40;;;;;;;9.96;68.51;97032.77;104976;1254;101128;-79
2024/04/09 00:43:47;;;;;;;8.30;4.30;;;;;;;9.90;68.49;97031.52;104785;1259;99385;-79
2024/04/09 00:46:18;;;;;;;6.10;3.50;;;;;;;9.85;68.52;97032.09;105093;1266;99405;-82
2024/04/09 00:48:45;;;;;;;5.70;3.90;;;;;;;9.80;68.61;97032.92;105105;1256;99688;-81
2024/04/09 00:51:19;;;;;;;5.60;3.70;;;;;;;9.78;68.67;97031.42;104984;1254;105400;-82
2024/04/09 00:53:50;;;;;;;7.10;4.10;;;;;;;9.76;68.66;97029.73;105087;1267;101471;-82
2024/04/09 00:56:18;;;;;;;6.20;4.30;;;;;;;9.74;68.86;97028.16;105045;1268;99304;-82
2024/04/09 00:58:47;;;;;;;6.60;4.00;;;;;;;9.72;68.83;97029.87;105065;1257;100616;-82
2024/04/09 01:01:17;;;;;;;5.30;4.00;;;;;;;9.68;68.81;97030.96;105110;1256;99749;-75
2024/04/09 01:03:45;;;;;;;7.90;3.90;;;;;;;9.64;68.94;97032.40;105020;1267;104548;-75
2024/04/09 01:06:13;;;;;;;6.60;3.50;;;;;;;9.59;69.08;97028.44;105063;1270;101005;-75
2024/04/09 01:08:40;;;;;;;4.50;3.80;;;;;;;9.53;69.12;97029.21;105071;1256;99985;-75
2024/04/09 01:11:08;;;;;;;5.70;3.90;;;;;;;9.47;69.27;97030.65;105027;1253;100459;-75
2024/04/09 01:13:39;;;;;;;7.30;4.50;;;;;;;9.43;69.37;97028.95;105081;1256;99686;-76
2024/04/09 01:16:07;;;;;;;5.70;3.80;;;;;;;9.44;69.42;97031.55;104916;1260;104004;-78
2024/04/09 01:18:35;;;;;;;6.70;3.70;;;;;;;9.45;69.52;97032.47;105038;1257;101513;-79
2024/04/09 01:21:03;;;;;;;9.00;4.10;;;;;;;9.40;69.55;97029.39;105121;1258;99200;-78
2024/04/09 01:23:30;;;;;;;6.60;4.00;;;;;;;9.37;69.64;97024.59;104963;1256;100459;-79
2024/04/09 01:25:58;;;;;;;8.70;4.20;;;;;;;9.37;69.77;97028.62;104939;1254;99963;-78
2024/04/09 01:28:25;;;;;;;4.40;3.80;;;;;;;9.36;69.81;97028.53;104937;1257;99231;-79
2024/04/09 01:30:55;;;;;;;4.90;4.00;;;;;;;9.34;69.84;97027.21;105081;1256;99274;-78
2024/04/09 01:33:22;;;;;;;6.10;4.10;;;;;;;9.32;69.85;97026.50;105055;1257;99328;-77
2024/04/09 01:35:52;;;;;;;7.90;4.30;;;;;;;9.32;69.97;97026.05;104981;1275;100555;-82
2024/04/09 01:38:19;;;;;;;5.90;4.20;;;;;;;9.31;70.01;97024.73;105001;1256;99158;-82
2024/04/09 01:40:50;;;;;;;8.70;4.20;;;;;;;9.30;70.06;97021.09;105064;1266;99263;-81
2024/04/09 01:43:17;;;;;;;6.10;4.50;;;;;;;9.29;70.14;97024.30;104962;1267;101318;-82
2024/04/09 01:45:45;;;;;;;5.40;3.80;;;;;;;9.27;70.05;97024.05;104990;1256;99247;-79
2024/04/09 01:48:12;;;;;;;4.90;3.40;;;;;;;9.24;70.14;97026.95;104969;1254;99321;-79
2024/04/09 01:50:40;;;;;;;6.60;3.80;;;;;;;9.22;70.09;97024.71;105033;1256;99339;-79
2024/04/09 01:53:07;;;;;;;6.80;3.70;;;;;;;9.22;70.29;97020.21;104965;1268;99764;-79
2024/04/09 01:55:35;;;;;;;4.70;3.60;;;;;;;9.19;70.20;97018.55;105015;1256;99243;-79
2024/04/09 01:58:04;;;;;;;7.20;3.90;;;;;;;9.18;70.35;97018.26;104914;1257;99296;-79
2024/04/09 02:00:32;;;;;;;5.70;3.60;;;;;;;9.19;70.48;97019.09;105015;1259;99366;-79
2024/04/09 02:03:01;;;;;;;4.20;3.80;;;;;;;9.18;70.47;97018.48;104893;1256;99676;-79
2024/04/09 02:05:28;;;;;;;5.00;3.30;;;;;;;9.14;70.59;97018.62;104968;1256;103628;-78
2024/04/09 02:07:56;;;;;;;6.90;3.60;;;;;;;9.12;70.68;97015.23;104927;1259;99332;-78
2024/04/09 02:10:24;;;;;;;4.60;3.40;;;;;;;9.12;70.82;97016.47;104938;1257;100696;-79
2024/04/09 02:12:51;;;;;;;5.10;3.40;;;;;;;9.13;70.73;97017.59;105019;1259;99279;-76
2024/04/09 02:15:22;;;;;;;4.90;3.30;;;;;;;9.14;70.78;97017.67;104915;1257;99788;-75
2024/04/09 02:17:50;;;;;;;8.50;3.80;;;;;;;9.13;70.81;97019.03;104925;1257;104722;-75
2024/04/09 02:20:17;;;;;;;5.80;3.30;;;;;;;9.12;70.85;97021.39;104923;1256;99269;-75
2024/04/09 02:22:45;;;;;;;7.90;3.50;;;;;;;9.13;70.93;97017.38;104983;1256;99244;-75
2024/04/09 02:25:12;;;;;;;5.60;3.20;;;;;;;9.14;71.02;97017.63;104923;1259;99328;-75
2024/04/09 02:27:40;;;;;;;10.10;4.80;;;;;;;9.09;71.07;97008.65;104996;1256;99866;-75
2024/04/09 02:30:10;;;;;;;13.70;5.00;;;;;;;9.06;71.06;97007.62;104962;1257;99250;-75
2024/04/09 02:32:37;;;;;;;11.10;5.60;;;;;;;9.04;71.16;97010.00;105055;1257;100492;-79
2024/04/09 02:35:09;;;;;;;12.30;6.00;;;;;;;9.01;71.22;97009.29;104896;1256;100114;-75
2024/04/09 02:37:38;;;;;;;8.10;6.80;;;;;;;8.98;71.28;97009.88;104958;1267;99388;-75
2024/04/09 02:40:07;;;;;;;9.00;5.60;;;;;;;8.98;71.28;97009.54;104903;1267;99684;-75
2024/04/09 02:42:43;;;;;;;9.50;5.50;;;;;;;8.99;71.36;97009.45;104926;1256;104894;-75
2024/04/09 02:45:11;;;;;;;6.60;5.00;;;;;;;8.99;71.38;97003.86;105168;1256;100402;-75
2024/04/09 02:47:39;;;;;;;9.60;5.30;;;;;;;8.99;71.41;97004.48;104983;1257;100120;-75
2024/04/09 02:50:06;;;;;;;9.30;5.10;;;;;;;8.98;71.48;97004.48;104921;1256;99258;-75
2024/04/09 02:52:34;;;;;;;6.50;4.50;;;;;;;8.97;71.44;97004.27;105074;1257;99701;-75
2024/04/09 02:55:02;;;;;;;8.00;4.50;;;;;;;8.92;71.48;97000.21;105030;1256;99333;-75
2024/04/09 02:57:30;;;;;;;8.50;4.40;;;;;;;8.90;71.60;97000.66;105062;1255;101445;-75
2024/04/09 02:59:58;;;;;;;6.60;4.20;;;;;;;8.90;71.65;97000.21;104913;1266;99276;-75
2024/04/09 03:02:25;;;;;;;5.70;3.80;;;;;;;8.92;71.70;96999.47;105020;1257;99274;-79
2024/04/09 03:04:53;;;;;;;9.30;3.70;;;;;;;8.92;71.71;96999.77;104949;1275;99368;-79
2024/04/09 03:07:20;;;;;;;8.60;4.00;;;;;;;8.88;71.87;96996.52;104987;1256;99378;-79
2024/04/09 03:09:48;;;;;;;5.60;3.50;;;;;;;8.86;71.91;96996.20;105016;1257;99262;-80
2024/04/09 03:12:15;;;;;;;7.50;3.80;;;;;;;8.83;72.03;96992.30;104967;1261;100479;-79
2024/04/09 03:14:43;;;;;;;4.60;4.00;;;;;;;8.83;72.10;96988.12;105049;1254;99260;-80
2024/04/09 03:17:11;;;;;;;6.60;4.70;;;;;;;8.84;72.12;96989.02;105105;1257;99759;-79
2024/04/09 03:19:38;;;;;;;10.60;4.80;;;;;;;8.85;72.18;96986.58;104968;1257;103421;-79
2024/04/09 03:22:06;;;;;;;9.20;5.00;;;;;;;8.87;72.22;96989.15;105047;1257;101517;-78
2024/04/09 03:24:33;;;;;;;15.90;4.60;;;;;;;8.90;72.28;96990.06;105045;1257;99273;-80
2024/04/09 03:27:01;;;;;;;5.80;4.00;;;;;;;8.89;72.29;96987.20;105028;1254;99314;-79
2024/04/09 03:29:29;;;;;;;4.10;3.20;;;;;;;8.89;72.30;96984.06;105069;1257;99218;-75
2024/04/09 03:31:56;;;;;;;6.30;3.50;;;;;;;8.87;72.30;96984.39;104937;1257;104977;-75
2024/04/09 03:34:24;;;;;;;8.90;3.70;;;;;;;8.87;72.21;96980.25;104987;1257;108682;-75
2024/04/09 03:36:52;;;;;;;7.20;3.30;;;;;;;8.87;72.34;96986.55;104981;1266;99865;-75
2024/04/09 03:39:19;;;;;;;7.30;3.30;;;;;;;8.88;72.46;96985.68;105058;1264;100623;-75
2024/04/09 03:41:47;;;;;;;8.00;3.80;;;;;;;8.88;72.44;96987.38;105000;1256;99446;-75
2024/04/09 03:44:14;;;;;;;10.90;4.30;;;;;;;8.88;72.38;96986.17;105080;1264;99326;-75
2024/04/09 03:46:41;;;;;;;9.20;4.10;;;;;;;8.85;72.39;96975.50;105055;1256;99253;-75
2024/04/09 03:49:09;;;;;;;9.50;4.80;;;;;;;8.85;72.43;96976.81;105059;1256;100456;-79
2024/04/09 03:51:37;;;;;;;10.80;5.30;;;;;;;8.86;72.51;96979.51;104990;1256;99160;-80
2024/04/09 03:54:07;;;;;;;16.80;6.00;;;;;;;8.83;72.54;96985.06;105107;1256;99708;-80
2024/04/09 03:56:35;;;;;;;13.50;6.80;;;;;;;8.77;72.59;96990.55;105059;1254;105046;-80
2024/04/09 03:59:02;;;;;;;16.90;7.00;;;;;;;8.75;72.81;96990.46;105014;1258;100481;-80
2024/04/09 04:01:30;;;;;;;14.30;7.00;;;;;;;8.76;72.75;96984.05;105035;1257;99260;-81
2024/04/09 04:03:57;;;;;;;12.10;5.60;;;;;;;8.78;72.87;96979.91;105021;1256;99254;-80
2024/04/09 04:06:25;;;;;;;12.50;6.00;;;;;;;8.76;73.11;96980.73;105031;1257;99285;-80
2024/04/09 04:08:53;;;;;;;13.40;5.80;;;;;;;8.72;73.28;96977.27;105017;1267;105201;-75
2024/04/09 04:11:20;;;;;;;10.00;5.40;;;;;;;8.69;73.34;96972.51;105056;1268;101566;-75
2024/04/09 04:13:48;;;;;;;13.50;5.50;;;;;;;8.67;73.37;96975.09;105044;1259;99263;-75
2024/04/09 04:16:18;;;;;;;12.10;5.60;;;;;;;8.67;73.38;96975.63;105004;1256;99336;-75
2024/04/09 04:18:47;;;;;;;13.80;7.70;;;;;;;8.69;73.40;96976.49;105009;1254;99775;-75
2024/04/09 04:21:17;;;;;;;13.10;7.50;;;;;;;8.71;73.38;96975.45;105074;1256;104041;-75
2024/04/09 04:23:51;;;;;;;14.60;6.50;;;;;;;8.72;73.47;96978.83;105069;1264;101241;-75
2024/04/09 04:26:20;;;;;;;12.90;6.70;;;;;;;8.70;73.58;96979.28;105023;1270;100118;-74
2024/04/09 04:28:49;;;;;;;14.80;6.40;;;;;;;8.69;73.47;96975.75;105092;1256;99320;-75
2024/04/09 04:31:19;;;;;;;12.70;6.60;;;;;;;8.71;73.57;96974.40;105100;1257;99263;-78
2024/04/09 04:33:49;;;;;;;15.70;6.90;;;;;;;8.73;73.63;96973.77;105083;1257;103685;-79
2024/04/09 04:36:17;;;;;;;16.10;6.70;;;;;;;8.76;73.55;96971.34;105098;1254;108722;-78
2024/04/09 04:38:47;;;;;;;13.80;7.50;;;;;;;8.79;73.65;96967.95;105018;1267;99324;-79
2024/04/09 04:41:14;;;;;;;22.00;10.50;;;;;;;8.80;73.75;96968.23;105094;1261;99314;-78
2024/04/09 04:43:42;;;;;;;24.10;10.60;;;;;;;8.82;73.74;96972.59;104977;1266;100923;-79
2024/04/09 04:46:10;;;;;;;24.50;11.50;;;;;;;8.85;73.79;96975.20;105072;1267;104504;-79
2024/04/09 04:48:38;;;;;;;20.30;9.80;;;;;;;8.86;73.85;96971.72;104981;1256;100129;-79
2024/04/09 04:51:06;;;;;;;25.90;10.00;;;;;;;8.89;73.76;96972.80;104895;1261;99279;-79
2024/04/09 04:53:34;;;;;;;18.00;9.00;;;;;;;8.93;73.79;96976.10;104926;1259;99231;-79
2024/04/09 04:56:02;;;;;;;21.40;9.10;;;;;;;8.98;73.82;96977.52;104937;1257;100572;-79
2024/04/09 04:58:30;;;;;;;14.80;8.20;;;;;;;9.03;73.74;96976.90;104991;1263;112257;-79
2024/04/09 05:00:57;;;;;;;16.80;8.80;;;;;;;9.07;73.94;96975.72;104969;1260;100522;-78
2024/04/09 05:03:25;;;;;;;18.80;8.80;;;;;;;9.11;73.88;96977.45;104924;1259;99269;-79
2024/04/09 05:05:52;;;;;;;26.10;10.20;;;;;;;9.16;73.85;96971.89;104942;1272;99336;-81
2024/04/09 05:08:20;;;;;;;23.20;9.20;;;;;;;9.19;74.00;96971.65;104949;1260;99272;-81
2024/04/09 05:10:47;;;;;;;15.10;8.10;;;;;;;9.21;74.05;96972.61;104931;1266;99259;-81
2024/04/09 05:13:15;;;;;;;11.50;7.70;;;;;;;9.25;74.04;96968.54;105023;1257;100437;-82
2024/04/09 05:15:43;;;;;;;12.80;6.10;;;;;;;9.29;74.06;96969.63;104944;1266;99267;-81
2024/04/09 05:18:10;;;;;;;12.70;6.30;;;;;;;9.35;74.00;96971.21;104910;1260;100563;-81
2024/04/09 05:20:39;;;;;;;9.10;6.00;;;;;;;9.42;74.08;96976.87;104935;1254;99711;-81
2024/04/09 05:23:07;;;;;;;22.60;7.10;;;;;;;9.48;74.15;96973.73;104899;1257;104469;-82
2024/04/09 05:25:35;;;;;;;11.20;6.30;;;;;;;9.52;74.13;96973.42;104979;1266;101419;-80
2024/04/09 05:28:03;;;;;;;16.30;7.00;;;;;;;9.57;74.02;96968.29;104936;1257;99965;-80
2024/04/09 05:30:30;;;;;;;13.50;6.00;;;;;;;9.63;73.97;96960.64;104936;1257;99264;-80
2024/04/09 05:32:58;;;;;;;13.90;5.70;;;;;;;9.68;74.07;96959.93;104969;1260;99772;-83
2024/04/09 05:35:26;;;;;;;17.10;6.20;;;;;;;9.76;74.13;96961.42;104945;1256;103945;-81
2024/04/09 05:37:54;;;;;;;13.80;6.10;;;;;;;9.84;74.21;96959.06;104906;1276;101462;-82
2024/04/09 05:40:21;;;;;;;7.10;4.40;;;;;;;9.92;74.25;96957.59;104750;1269;99387;-82
2024/04/09 05:42:49;;;;;;;9.50;5.10;;;;;;;10.00;74.29;96960.11;104887;1260;99934;-82
2024/04/09 05:45:20;;;;;;;13.40;4.50;;;;;;;10.09;74.20;96955.77;105016;1267;99906;-82
2024/04/09 05:47:48;;;;;;;15.80;4.70;;;;;;;10.18;74.20;96957.84;104972;1256;103640;-82
2024/04/09 05:50:16;;;;;;;14.20;5.00;;;;;;;10.25;74.17;96960.31;105046;1260;101096;-81
2024/04/09 05:52:43;;;;;;;14.60;5.00;;;;;;;10.34;74.10;96962.53;105020;1259;99771;-82
2024/04/09 05:55:12;;;;;;;10.70;4.30;;;;;;;10.43;73.99;96966.19;104990;1257;99298;-82
2024/04/09 05:57:40;;;;;;;10.80;4.80;;;;;;;10.53;74.06;96964.44;104972;1266;99785;-82
2024/04/09 06:00:10;;;;;;;16.20;4.80;;;;;;;10.62;74.09;96963.23;105050;1266;99361;-82
2024/04/09 06:02:38;;;;;;;11.90;4.90;;;;;;;10.72;74.23;96963.70;105064;1256;101404;-81
2024/04/09 06:05:06;;;;;;;10.00;5.40;;;;;;;10.83;74.18;96958.26;105007;1275;99334;-82
2024/04/09 06:07:34;;;;;;;9.20;4.50;;;;;;;10.94;74.28;96951.24;105040;1257;99294;-81
2024/04/09 06:10:02;;;;;;;7.40;4.30;;;;;;;11.07;74.26;96954.87;105080;1266;99499;-82
2024/04/09 06:12:30;;;;;;;8.90;4.20;;;;;;;11.19;74.03;96952.64;105069;1266;104041;-81
2024/04/09 06:14:58;;;;;;;8.70;4.40;;;;;;;11.33;74.01;96948.36;105060;1266;100572;-82
2024/04/09 06:17:25;;;;;;;6.80;3.80;;;;;;;11.46;73.96;96946.03;105037;1266;100571;-82
2024/04/09 06:19:56;;;;;;;10.40;4.20;;;;;;;11.57;73.62;96942.56;104936;1258;99265;-81
2024/04/09 06:22:25;;;;;;;8.80;3.80;;;;;;;11.70;73.65;96942.42;104987;1257;99183;-81
2024/04/09 06:24:52;;;;;;;10.30;4.20;;;;;;;11.81;73.49;96946.66;104936;1275;104348;-82
2024/04/09 06:27:20;;;;;;;8.30;4.00;;;;;;;11.91;73.16;96944.77;104976;1257;101115;-81
2024/04/09 06:29:47;;;;;;;7.10;3.90;;;;;;;12.03;72.91;96934.35;104974;1266;100009;-81
2024/04/09 06:32:15;;;;;;;12.10;3.60;;;;;;;12.16;72.67;96932.89;104987;1275;99260;-73
2024/04/09 06:34:43;;;;;;;9.70;3.50;;;;;;;12.30;72.53;96937.83;104988;1264;99261;-74
2024/04/09 06:37:10;;;;;;;7.30;3.20;;;;;;;12.43;72.29;96940.48;104982;1267;103997;-73
2024/04/09 06:39:38;;;;;;;8.60;3.80;;;;;;;12.57;72.15;96936.33;105016;1256;101172;-73
2024/04/09 06:42:06;;;;;;;15.70;7.70;;;;;;;12.72;72.25;96939.02;105033;1258;99257;-73
2024/04/09 06:44:34;;;;;;;16.50;8.10;;;;;;;12.94;71.63;96943.49;104975;1266;99263;-73
2024/04/09 06:47:02;;;;;;;15.10;7.70;;;;;;;13.10;71.16;96937.26;105100;1256;99854;-74
2024/04/09 06:49:29;;;;;;;21.40;7.80;;;;;;;13.32;71.02;96931.77;104999;1266;104304;-74
2024/04/09 06:51:57;;;;;;;13.30;6.20;;;;;;;13.58;71.48;96927.77;104975;1257;99497;-74
2024/04/09 06:54:25;;;;;;;16.50;5.20;;;;;;;13.76;71.25;96921.17;104933;1266;99674;-75
2024/04/09 06:56:52;;;;;;;14.70;4.30;;;;;;;13.92;70.92;96921.05;105040;1264;100601;-74
2024/04/09 06:59:20;;;;;;;8.70;3.60;;;;;;;14.11;70.32;96916.81;104987;1256;99708;-74
2024/04/09 07:01:47;;;;;;;5.90;3.50;;;;;;;14.26;69.69;96915.50;105063;1257;104895;-82
2024/04/09 07:04:15;;;;;;;9.00;3.10;;;;;;;14.42;69.30;96912.36;104989;1260;100349;-82
2024/04/09 07:06:42;;;;;;;4.70;2.80;;;;;;;14.57;69.32;96907.87;105043;1257;100597;-82
2024/04/09 07:09:16;;;;;;;6.70;2.90;;;;;;;14.74;69.11;96907.09;105083;1257;99164;-82
2024/04/09 07:11:47;;;;;;;4.80;2.90;;;;;;;14.93;68.87;96902.02;105166;1254;99335;-82
2024/04/09 07:14:15;;;;;;;8.30;2.80;;;;;;;15.13;68.69;96899.58;104998;1257;104191;-81
2024/04/09 07:16:44;;;;;;;5.60;2.60;;;;;;;15.33;67.60;96899.17;105043;1266;100013;-74
2024/04/09 07:19:11;;;;;;;6.80;3.10;;;;;;;15.53;67.01;96900.30;105066;1258;99650;-75
2024/04/09 07:21:39;;;;;;;5.90;3.00;;;;;;;15.73;66.43;96901.02;105084;1256;99246;-83
2024/04/09 07:24:08;;;;;;;5.10;2.30;;;;;;;15.94;66.12;96900.81;105014;1266;99688;-84
2024/04/09 07:26:36;;;;;;;9.30;2.70;;;;;;;16.16;65.48;96902.26;105113;1266;104119;-84
2024/04/09 07:29:03;;;;;;;6.40;2.80;;;;;;;16.37;64.91;96904.41;105079;1272;100667;-83
2024/04/09 07:31:31;;;;;;;4.60;2.30;;;;;;;16.59;64.13;96904.36;105074;1255;100590;-81
2024/04/09 07:33:58;;;;;;;3.70;2.50;;;;;;;16.83;63.21;96897.98;105063;1268;99272;-81
2024/04/09 07:36:26;;;;;;;5.20;2.50;;;;;;;17.14;62.46;96891.90;105022;1256;99243;-81
2024/04/09 07:38:53;;;;;;;7.00;2.50;;;;;;;17.48;61.78;96896.08;105058;1256;99329;-81
2024/04/09 07:41:22;;;;;;;11.60;2.60;;;;;;;17.82;60.71;96894.90;105038;1258;99311;-81
2024/04/09 07:43:50;;;;;;;7.10;2.90;;;;;;;18.09;60.31;96891.18;105095;1273;99285;-81
2024/04/09 07:46:19;;;;;;;6.00;2.40;;;;;;;18.31;59.34;96889.66;105066;1257;99292;-81
2024/04/09 07:48:46;;;;;;;4.70;2.40;;;;;;;18.49;58.77;96893.00;104984;1267;99730;-81
2024/04/09 07:51:14;;;;;;;4.10;1.80;;;;;;;18.69;58.33;96894.27;105017;1257;99263;-81
2024/04/09 07:53:41;;;;;;;8.90;2.10;;;;;;;18.96;57.65;96896.56;105049;1258;100363;-81
2024/04/09 07:56:12;;;;;;;3.40;1.90;;;;;;;19.26;56.46;96890.35;105067;1254;99304;-81
2024/04/09 07:58:40;;;;;;;3.90;2.30;;;;;;;19.50;55.47;96896.08;105109;1254;99356;-80
2024/04/09 08:01:08;;;;;;;5.10;2.00;;;;;;;19.75;54.86;96894.82;105012;1257;99775;-81
2024/04/09 08:03:35;;;;;;;4.90;1.90;;;;;;;19.99;54.18;96896.43;104966;1258;99276;-81
2024/04/09 08:06:04;;;;;;;8.90;2.20;;;;;;;20.31;53.34;96894.95;104989;1266;101302;-81
2024/04/09 08:08:31;;;;;;;7.70;2.00;;;;;;;20.72;52.64;96894.14;105087;1256;100075;-80
2024/04/09 08:11:00;;;;;;;2.30;1.80;;;;;;;21.11;51.92;96891.63;105037;1264;99295;-81
2024/04/09 08:13:27;;;;;;;7.40;2.10;;;;;;;21.51;50.57;96895.80;105125;1257;101915;-81
2024/04/09 08:15:56;;;;;;;4.40;2.20;;;;;;;21.80;49.40;96891.71;105148;1257;99318;-84
2024/04/09 08:18:25;;;;;;;3.00;1.90;;;;;;;22.03;48.82;96883.84;105081;1257;100006;-84
2024/04/09 08:20:53;;;;;;;4.30;1.80;;;;;;;22.33;48.55;96879.09;105011;1269;99439;-83
2024/04/09 08:23:21;;;;;;;3.50;2.10;;;;;;;22.61;47.78;96877.15;105025;1256;99270;-84
2024/04/09 08:25:49;;;;;;;3.00;1.60;;;;;;;22.84;47.41;96878.77;105077;1258;99736;-83
2024/04/09 08:28:18;;;;;;;5.10;1.90;;;;;;;23.12;46.59;96872.69;105060;1257;104017;-83
2024/04/09 08:30:46;;;;;;;5.20;2.20;;;;;;;23.47;46.09;96869.57;105095;1257;101160;-82
2024/04/09 08:33:14;;;;;;;5.00;1.90;;;;;;;23.91;45.57;96866.94;105015;1256;99351;-82
2024/04/09 08:35:51;;;;;;;6.70;2.30;;;;;;;24.41;45.11;96866.02;105056;1257;99346;-82
2024/04/09 08:38:20;;;;;;;2.50;1.70;;;;;;;24.92;44.08;96864.55;105100;1254;99744;-81
2024/04/09 08:40:48;;;;;;;3.60;1.80;;;;;;;25.35;42.61;96859.37;104997;1257;104042;-82
2024/04/09 08:43:17;;;;;;;3.70;2.10;;;;;;;25.66;41.86;96857.19;105036;1257;108336;-82
2024/04/09 08:45:45;;;;;;;3.50;1.80;;;;;;;25.96;41.36;96853.77;104964;1267;99360;-81
2024/04/09 08:48:16;;;;;;;4.00;2.00;;;;;;;26.26;40.16;96849.23;105026;1258;99323;-81
2024/04/09 08:50:49;;;;;;;2.20;1.70;;;;;;;26.48;39.78;96852.70;105028;1254;99769;-80
2024/04/09 08:53:18;;;;;;;4.80;1.90;;;;;;;26.61;39.21;96848.29;104853;1260;104135;-81
2024/04/09 08:56:03;;;;;;;6.90;1.80;;;;;;;26.78;38.63;96850.14;104963;1266;100454;-82
2024/04/09 08:58:31;;;;;;;4.60;1.90;;;;;;;27.00;37.66;96849.62;104996;1267;99324;-81
2024/04/09 09:00:59;;;;;;;6.70;1.40;;;;;;;27.13;36.98;96846.36;104984;1257;99347;-81
2024/04/09 09:03:26;;;;;;;5.40;1.90;;;;;;;27.23;36.75;96842.86;105004;1258;99374;-81
2024/04/09 09:06:01;;;;;;;5.80;2.00;;;;;;;27.38;35.47;96840.15;105065;1256;104985;-81
2024/04/09 09:08:43;;;;;;;6.20;2.10;;;;;;;27.48;35.75;96840.23;105055;1254;101409;-81
2024/04/09 09:11:10;;;;;;;4.30;2.20;;;;;;;27.58;36.20;96838.22;105054;1258;99292;-81
2024/04/09 09:13:38;;;;;;;2.80;1.90;;;;;;;27.61;36.14;96834.55;104919;1256;100118;-81
2024/04/09 09:16:09;;;;;;;4.50;2.00;;;;;;;27.73;35.66;96828.73;104973;1257;99712;-74
2024/04/09 09:18:38;;;;;;;7.20;2.10;;;;;;;27.95;35.44;96823.34;105102;1256;104819;-84
2024/04/09 09:21:05;;;;;;;6.20;2.20;;;;;;;28.14;34.34;96816.30;105020;1258;99982;-83
2024/04/09 09:23:35;;;;;;;4.10;1.80;;;;;;;28.24;34.24;96815.13;104895;1255;99292;-83
2024/04/09 09:26:06;;;;;;;3.50;2.50;;;;;;;28.38;34.47;96811.59;105083;1266;99382;-83
2024/04/09 09:28:33;;;;;;;4.40;2.10;;;;;;;28.42;34.33;96809.06;105042;1257;99758;-84
2024/04/09 09:31:01;;;;;;;4.90;2.20;;;;;;;28.45;34.26;96806.23;105034;1264;104110;-83
2024/04/09 09:33:30;;;;;;;5.20;2.40;;;;;;;28.45;34.38;96803.36;105037;1258;100482;-83
2024/04/09 09:35:59;;;;;;;4.00;2.50;;;;;;;28.49;34.43;96798.53;105078;1258;100104;-83
2024/04/09 09:38:28;;;;;;;6.30;2.40;;;;;;;28.58;34.70;96794.73;105063;1257;99350;-83
2024/04/09 09:40:57;;;;;;;4.50;2.70;;;;;;;28.78;34.08;96795.62;105144;1267;99743;-82
2024/04/09 09:43:26;;;;;;;5.00;2.80;;;;;;;28.94;34.14;96794.11;105057;1257;105189;-82
2024/04/09 09:45:55;;;;;;;5.30;2.60;;;;;;;28.85;33.93;96793.39;105134;1257;100474;-83
2024/04/09 09:48:24;;;;;;;5.40;3.00;;;;;;;28.65;33.93;96787.93;105083;1268;99963;-82
2024/04/09 09:50:52;;;;;;;4.80;2.50;;;;;;;28.39;34.71;96785.10;105100;1266;99256;-82
2024/04/09 09:53:20;;;;;;;6.60;2.60;;;;;;;28.20;34.91;96780.34;105102;1266;99333;-83
2024/04/09 09:55:52;;;;;;;7.80;3.00;;;;;;;28.03;35.26;96779.42;104999;1257;103396;-82
2024/04/09 09:58:23;;;;;;;4.00;2.50;;;;;;;27.90;35.02;96773.95;105075;1266;101398;-83
2024/04/09 10:00:53;;;;;;;5.10;2.60;;;;;;;28.01;35.60;96770.56;105068;1264;99438;-82
2024/04/09 10:03:21;;;;;;;8.10;2.50;;;;;;;28.29;35.59;96769.88;105071;1254;99711;-83
2024/04/09 10:05:50;;;;;;;4.50;2.60;;;;;;;28.56;35.44;96762.43;105057;1256;99675;-83
2024/04/09 10:08:22;;;;;;;3.10;2.40;;;;;;;28.71;35.42;96763.37;105261;1271;105107;-83
2024/04/09 10:10:51;;;;;;;7.00;2.50;;;;;;;28.78;34.90;96759.19;108703;1253;101535;-84
2024/04/09 10:13:21;;;;;;;6.80;2.50;;;;;;;28.98;34.35;96758.84;107687;1253;100270;-84
2024/04/09 10:15:49;;;;;;;6.90;3.10;;;;;;;29.10;34.05;96755.80;105066;1267;99262;-83
2024/04/09 10:18:37;;;;;;;4.40;2.30;;;;;;;29.16;33.77;96753.63;104711;1260;99939;-83
2024/04/09 10:21:05;;;;;;;5.10;2.90;;;;;;;29.18;33.33;96748.64;105166;1257;103979;-83
2024/04/09 10:23:39;;;;;;;6.20;2.60;;;;;;;29.28;33.23;96743.42;105035;1270;100422;-83
2024/04/09 10:26:07;;;;;;;6.00;2.20;;;;;;;29.41;33.12;96742.71;104985;1266;99818;-83
2024/04/09 10:28:35;;;;;;;4.40;2.40;;;;;;;29.49;32.84;96740.99;104970;1257;99336;-83
2024/04/09 10:31:09;;;;;;;6.30;2.80;;;;;;;29.50;32.03;96736.20;105104;1257;99733;-83
2024/04/09 10:33:38;;;;;;;6.80;2.60;;;;;;;29.44;31.75;96736.23;105136;1258;104802;-83
2024/04/09 10:36:11;;;;;;;6.60;2.00;;;;;;;29.35;32.12;96733.52;105080;1265;101726;-83
2024/04/09 10:38:41;;;;;;;4.10;2.60;;;;;;;29.39;32.52;96728.85;105068;1254;99257;-83
2024/04/09 10:41:10;;;;;;;4.10;2.00;;;;;;;29.37;32.84;96726.56;105013;1271;99251;-81
2024/04/09 10:43:38;;;;;;;4.10;2.60;;;;;;;29.51;32.42;96723.34;105122;1260;99861;-83
2024/04/09 10:46:06;;;;;;;3.60;2.40;;;;;;;29.78;32.65;96718.04;105070;1257;104864;-84
2024/04/09 10:48:33;;;;;;;5.70;2.30;;;;;;;30.05;32.66;96712.25;105079;1258;100461;-83
2024/04/09 10:51:01;;;;;;;6.90;2.80;;;;;;;30.31;32.40;96708.71;104979;1257;99215;-75
2024/04/09 10:53:29;;;;;;;7.80;2.60;;;;;;;30.67;32.13;96705.16;105075;1258;99250;-75
2024/04/09 10:56:03;;;;;;;3.30;1.80;;;;;;;30.96;31.96;96702.55;105059;1256;99850;-75
2024/04/09 10:58:31;;;;;;;7.00;2.30;;;;;;;31.13;30.92;96698.86;104913;1258;103744;-75
2024/04/09 11:00:59;;;;;;;3.30;1.70;;;;;;;31.24;29.84;96699.92;105036;1256;100185;-80
2024/04/09 11:03:26;;;;;;;2.60;1.90;;;;;;;31.34;29.53;96698.96;104933;1254;99266;-80
2024/04/09 11:05:54;;;;;;;2.10;1.90;;;;;;;31.57;29.05;96692.55;105013;1255;99362;-80
2024/04/09 11:08:29;;;;;;;3.60;1.90;;;;;;;31.78;28.84;96684.91;105075;1267;99746;-80
2024/04/09 11:10:59;;;;;;;7.00;2.30;;;;;;;31.94;29.01;96683.42;105103;1257;104045;-80
2024/04/09 11:13:29;;;;;;;4.70;2.30;;;;;;;32.10;29.02;96677.04;105117;1256;100496;-80
2024/04/09 11:15:57;;;;;;;4.70;2.00;;;;;;;32.18;28.64;96677.30;105077;1256;99340;-80
2024/04/09 11:18:25;;;;;;;3.30;1.70;;;;;;;32.15;28.44;96672.28;105054;1268;99298;-79
2024/04/09 11:20:59;;;;;;;4.10;1.80;;;;;;;32.24;28.57;96668.40;105090;1254;100613;-80
2024/04/09 11:23:28;;;;;;;3.80;1.90;;;;;;;32.33;28.41;96666.52;105133;1270;103998;-79
2024/04/09 11:25:56;;;;;;;3.10;1.50;;;;;;;32.42;28.43;96670.92;105092;1267;100586;-80
2024/04/09 11:28:24;;;;;;;1.80;1.50;;;;;;;32.54;28.41;96667.39;105234;1254;99285;-80
2024/04/09 11:30:55;;;;;;;3.20;2.00;;;;;;;32.56;28.00;96664.70;105050;1256;99284;-80